Aérodrome :
LOGIN :

S'inscrire | Disclaimer

   EN    FR    IT 

 










Légende :    VFR   VFR Marginal   IFR   IFR Intensif   IFR Très Intensif
Visi : 
Plafond : 
>= 8 km
>= 3000ft
5 à 8 km
1000 à 3000 ft
1500m à 5 km
500 à 1000 ft
800 à 1500m
200 à 500 ft
< 800m
< 200 ft
Symboles :   Orages  Brouillard  Fortes neiges  Fortes précipitations  Vent > 20 kt
SIGMETs :   Divers  Orages  Givrage  Turbulence  Onde Orograph.  Cendres Volcan.






- Altitude de l'aérodrome : 404 ft
- Code IATA : WRO


EPWR - Wroclaw

DERNIER METAR :
  • 180400Z 26010KT CAVOK 07/01 Q1017

METARs EXPIRÉS :
  • 180330Z 26009KT CAVOK 07/01 Q1017
  • 180300Z 26010KT CAVOK 08/02 Q1017
  • 180230Z 26009KT 9999 SCT040 08/02 Q1017
  • 180200Z 27010KT CAVOK 08/02 Q1016
  • 180130Z 25009KT CAVOK 08/02 Q1016

TAF TAF EPWR
Valide du 18 à 03h jusqu'au 19 à 03h UTC


180230Z 1803/1903 27010KT CAVOK
BECMG 1806/1809 27015G25KT
TEMPO 1809/1815 27020G37KT 4000 SHRA BKN020CB
PROB30
TEMPO 1809/1815 TSRAGR
BECMG 1815/1818 23010KT



MET'MAP, la Météo Aéronautique d'un coup d'oeil ! - Copyright ORBIFLY Décembre 2007 - Disclaimer

ORBIFLY MET'MAP TEAM :

Programmation & Développement : Alexandra Zaïnal
Sur une idée originale de : Baudouin d'Aumeries
Assistance à la programmation : Marc-Olivier Méhu
Soutien technique & logistique : Manuel Goepfert

Contact : metmap@orbifly.com




SOURCES & CREDITS :

   NOAA